Pederneiras, Brazil
Current Conditions -  °F | °C
As of 1:20 PM on Wednesday 26 Nov 2014 (Local Time) from SBBU Reporting Station
Moderate Rain Moderate Rain  
Wind Chill: 77°   Ceiling: Unl
Heat Index: 78°   Visibility: 2.1mi
Dew Point: 75°   Wind: 12mph
Humidity: 94%   Direction: 280°W
Pressure: 29.85"   Gusts: NA
Location:  22.35°S, 48.77°W
Report Text: SBBU 261520Z 28010KT 3500 RA BR FEW010 SCT020 25/24 Q1011
Loading
Personal Weather Stations






























Interactive Weather Map New forecast layout! Learn more

10-Day Weather Forecast

Advertisements
Track Severe Weather on mobile